createdAt,value
2023-05-05T00:00:21.857Z,71.39
2023-05-05T00:01:21.858Z,71.45
2023-05-05T00:02:21.877Z,71.44
2023-05-05T00:03:21.991Z,71.35
2023-05-05T00:04:22.167Z,71.45
2023-05-05T00:05:21.804Z,71.34
2023-05-05T00:06:21.799Z,71.50
2023-05-05T00:07:21.758Z,71.39
2023-05-05T00:08:21.780Z,71.42
2023-05-05T00:09:21.790Z,71.47
2023-05-05T00:10:21.766Z,71.51
2023-05-05T00:11:21.743Z,71.56
2023-05-05T00:12:21.753Z,71.70
2023-05-05T00:13:21.735Z,71.89
2023-05-05T00:14:21.691Z,71.82
2023-05-05T00:15:21.702Z,71.69
2023-05-05T00:16:21.749Z,71.69
2023-05-05T00:17:21.708Z,71.79
2023-05-05T00:18:21.699Z,72.10
2023-05-05T00:19:21.650Z,72.14
2023-05-05T00:20:21.691Z,72.13
2023-05-05T00:21:21.649Z,72.09
2023-05-05T00:22:21.642Z,72.20
2023-05-05T00:23:21.610Z,72.28
2023-05-05T00:24:21.595Z,72.29
2023-05-05T00:25:21.604Z,72.34
2023-05-05T00:26:21.594Z,72.33
2023-05-05T00:27:21.585Z,72.39
2023-05-05T00:28:21.559Z,72.44
2023-05-05T00:29:21.558Z,72.43
2023-05-05T00:30:21.570Z,72.52
2023-05-05T00:31:21.591Z,72.55
2023-05-05T00:32:21.576Z,72.65
2023-05-05T00:33:21.566Z,72.65
2023-05-05T00:34:21.536Z,72.70
2023-05-05T00:35:21.509Z,72.77
2023-05-05T00:36:21.470Z,72.82
2023-05-05T00:37:21.528Z,72.90
2023-05-05T00:38:21.457Z,72.83
2023-05-05T00:39:21.485Z,72.81
2023-05-05T00:40:21.471Z,72.87
2023-05-05T00:41:21.466Z,72.93
2023-05-05T00:42:21.411Z,72.99
2023-05-05T00:43:21.397Z,73.01
2023-05-05T00:44:21.386Z,72.99
2023-05-05T00:45:21.381Z,73.06
2023-05-05T00:46:21.418Z,73.06
2023-05-05T00:47:21.392Z,73.08
2023-05-05T00:48:21.387Z,73.12
2023-05-05T00:49:21.387Z,73.21
2023-05-05T00:50:21.344Z,73.44
2023-05-05T00:51:21.334Z,73.62
2023-05-05T00:52:21.316Z,73.66
2023-05-05T00:53:21.348Z,73.74
2023-05-05T00:54:21.289Z,73.81
2023-05-05T00:55:21.345Z,73.90
2023-05-05T00:56:21.270Z,74.11
2023-05-05T00:57:21.289Z,74.26
2023-05-05T00:58:21.292Z,74.39
2023-05-05T00:59:21.283Z,74.45
2023-05-05T01:00:21.232Z,74.61
2023-05-05T01:01:21.268Z,74.82
2023-05-05T01:02:21.238Z,74.91
2023-05-05T01:03:21.262Z,75.03
2023-05-05T01:04:21.208Z,75.14
2023-05-05T01:05:21.195Z,75.21
2023-05-05T01:06:21.205Z,75.09
2023-05-05T01:07:21.224Z,74.95
2023-05-05T01:08:21.187Z,74.90
2023-05-05T01:09:21.153Z,74.81
2023-05-05T01:10:21.243Z,74.89
2023-05-05T01:11:21.124Z,75.05
2023-05-05T01:12:21.183Z,75.16
2023-05-05T01:13:21.111Z,75.26
2023-05-05T01:14:21.113Z,75.34
2023-05-05T01:15:21.084Z,75.38
2023-05-05T01:16:21.152Z,75.33
2023-05-05T01:17:21.091Z,75.26
2023-05-05T01:18:21.053Z,75.38
2023-05-05T01:19:21.067Z,75.39
2023-05-05T01:20:21.039Z,75.37
2023-05-05T01:21:21.026Z,75.31
2023-05-05T01:22:21.119Z,75.30
2023-05-05T01:23:21.027Z,75.29
2023-05-05T01:24:21.014Z,75.30
2023-05-05T01:25:20.974Z,75.31
2023-05-05T01:26:21.002Z,75.26
2023-05-05T01:27:21.015Z,75.23
2023-05-05T01:28:20.993Z,75.42
2023-05-05T01:29:20.988Z,75.49
2023-05-05T01:30:20.967Z,75.61
2023-05-05T01:31:20.966Z,75.63
2023-05-05T01:32:20.941Z,75.64
2023-05-05T01:33:20.962Z,75.66
2023-05-05T01:34:20.909Z,75.81
2023-05-05T01:35:20.882Z,75.91
2023-05-05T01:36:20.869Z,75.91
2023-05-05T01:37:20.864Z,75.94
2023-05-05T01:38:20.854Z,76.08
2023-05-05T01:39:20.869Z,76.16
2023-05-05T01:40:20.841Z,76.19
2023-05-05T01:41:20.863Z,76.33
2023-05-05T01:42:20.811Z,76.44
2023-05-05T01:43:20.812Z,76.59
2023-05-05T01:44:20.823Z,76.73
2023-05-05T01:45:20.787Z,76.75
2023-05-05T01:46:20.920Z,76.82
2023-05-05T01:47:20.908Z,76.72
2023-05-05T01:48:20.743Z,76.45
2023-05-05T01:49:20.760Z,76.34
2023-05-05T01:50:20.789Z,76.12
2023-05-05T01:51:20.729Z,75.88
2023-05-05T01:52:20.723Z,75.79
2023-05-05T01:53:20.720Z,75.85
2023-05-05T01:54:20.697Z,75.78
2023-05-05T01:55:20.706Z,75.65
2023-05-05T01:56:20.665Z,75.47
2023-05-05T01:57:20.670Z,75.37
2023-05-05T01:58:20.672Z,75.28
2023-05-05T01:59:20.667Z,75.20
2023-05-05T02:00:20.619Z,75.13
2023-05-05T02:01:20.663Z,75.10
2023-05-05T02:02:20.657Z,75.09
2023-05-05T02:03:20.718Z,75.12
2023-05-05T02:04:20.617Z,75.01
2023-05-05T02:05:20.611Z,74.74
2023-05-05T02:06:20.597Z,74.63
2023-05-05T02:07:20.558Z,74.49
2023-05-05T02:08:20.543Z,74.51
2023-05-05T02:09:20.540Z,74.53
2023-05-05T02:10:20.535Z,74.51
2023-05-05T02:11:20.591Z,74.42
2023-05-05T02:12:20.513Z,74.41
2023-05-05T02:13:20.657Z,74.35
2023-05-05T02:14:20.471Z,74.31
2023-05-05T02:15:20.499Z,74.33
2023-05-05T02:16:20.525Z,74.32
2023-05-05T02:17:20.473Z,74.24
2023-05-05T02:18:20.461Z,74.17
2023-05-05T02:19:20.441Z,74.04
2023-05-05T02:20:20.440Z,73.83
2023-05-05T02:21:20.446Z,73.66
2023-05-05T02:22:20.407Z,73.39
2023-05-05T02:23:20.485Z,73.09
2023-05-05T02:24:20.406Z,72.87
2023-05-05T02:25:20.372Z,72.93
2023-05-05T02:26:20.371Z,73.10
2023-05-05T02:27:20.345Z,72.92
2023-05-05T02:28:20.364Z,72.86
2023-05-05T02:29:20.378Z,72.79
2023-05-05T02:30:20.334Z,72.89
2023-05-05T02:31:20.368Z,72.92
2023-05-05T02:32:20.341Z,73.03
2023-05-05T02:33:20.297Z,73.34
2023-05-05T02:34:20.301Z,73.41
2023-05-05T02:35:20.288Z,73.40
2023-05-05T02:36:20.282Z,73.44
2023-05-05T02:37:20.245Z,73.57
2023-05-05T02:38:20.286Z,73.62
2023-05-05T02:39:20.240Z,73.59
2023-05-05T02:40:20.295Z,73.76
2023-05-05T02:41:20.225Z,73.73
2023-05-05T02:42:20.207Z,73.65
2023-05-05T02:43:20.216Z,73.76
2023-05-05T02:44:20.201Z,73.78
2023-05-05T02:45:20.228Z,73.73
2023-05-05T02:46:20.258Z,73.79
2023-05-05T02:47:20.247Z,73.67
2023-05-05T02:48:20.133Z,73.81
2023-05-05T02:49:20.127Z,73.86
2023-05-05T02:50:20.131Z,73.96
2023-05-05T02:51:20.113Z,74.19
2023-05-05T02:52:20.105Z,74.39
2023-05-05T02:53:20.088Z,74.45
2023-05-05T02:54:20.099Z,74.44
2023-05-05T02:55:20.087Z,74.21
2023-05-05T02:56:20.057Z,73.98
2023-05-05T02:57:20.048Z,73.70
2023-05-05T02:58:20.050Z,74.12
2023-05-05T02:59:20.073Z,74.17
2023-05-05T03:00:20.099Z,74.24
2023-05-05T03:01:20.032Z,74.30
2023-05-05T03:02:20.109Z,74.38
2023-05-05T03:03:20.065Z,74.37
2023-05-05T03:04:19.995Z,74.53
2023-05-05T03:05:20.066Z,74.42
2023-05-05T03:06:19.974Z,74.38
2023-05-05T03:07:19.972Z,74.37
2023-05-05T03:08:19.936Z,74.38
2023-05-05T03:09:19.935Z,74.34
2023-05-05T03:10:19.929Z,74.21
2023-05-05T03:11:19.904Z,74.24
2023-05-05T03:12:19.926Z,74.13
2023-05-05T03:13:19.934Z,74.10
2023-05-05T03:14:19.889Z,73.96
2023-05-05T03:15:19.909Z,73.86
2023-05-05T03:16:19.875Z,73.66
2023-05-05T03:17:19.821Z,73.71
2023-05-05T03:18:19.860Z,73.71
2023-05-05T03:19:19.874Z,73.67
2023-05-05T03:20:19.828Z,73.74
2023-05-05T03:21:19.812Z,73.73
2023-05-05T03:22:19.759Z,73.61
2023-05-05T03:23:19.749Z,73.70
2023-05-05T03:24:19.748Z,73.81
2023-05-05T03:25:19.720Z,73.93
2023-05-05T03:26:19.752Z,73.99
2023-05-05T03:27:19.717Z,74.00
2023-05-05T03:28:19.678Z,74.18
2023-05-05T03:29:19.669Z,74.24
2023-05-05T03:30:19.658Z,74.26
2023-05-05T03:31:19.738Z,74.16
2023-05-05T03:32:19.679Z,74.21
2023-05-05T03:33:19.710Z,74.19
2023-05-05T03:34:19.682Z,74.16
2023-05-05T03:35:19.623Z,74.27
2023-05-05T03:36:19.601Z,74.22
2023-05-05T03:37:19.603Z,74.14
2023-05-05T03:38:19.581Z,74.14
2023-05-05T03:39:19.655Z,74.00
2023-05-05T03:40:19.696Z,74.01
2023-05-05T03:41:19.539Z,73.84
2023-05-05T03:42:19.548Z,73.89
2023-05-05T03:43:19.571Z,74.09
2023-05-05T03:44:19.523Z,74.20
2023-05-05T03:45:19.508Z,74.24
2023-05-05T03:46:19.515Z,74.23
2023-05-05T03:47:19.482Z,74.23
2023-05-05T03:48:19.503Z,74.25
2023-05-05T03:49:19.459Z,74.25
2023-05-05T03:50:19.448Z,74.26
2023-05-05T03:51:19.465Z,74.09
2023-05-05T03:52:19.434Z,74.06
2023-05-05T03:53:19.497Z,74.01
2023-05-05T03:54:19.417Z,73.95
2023-05-05T03:55:19.402Z,73.90
2023-05-05T03:56:19.389Z,73.98
2023-05-05T03:57:19.407Z,74.10
2023-05-05T03:58:19.409Z,74.21
2023-05-05T03:59:19.348Z,74.29
2023-05-05T04:00:19.408Z,74.53
2023-05-05T04:01:19.380Z,74.55
2023-05-05T04:02:19.385Z,74.86
2023-05-05T04:03:19.535Z,75.07
2023-05-05T04:04:19.371Z,75.30
2023-05-05T04:05:19.295Z,75.44
2023-05-05T04:06:19.311Z,75.63
2023-05-05T04:07:19.373Z,75.60
2023-05-05T04:08:19.273Z,75.49
2023-05-05T04:09:19.285Z,75.40
2023-05-05T04:10:19.282Z,75.35
2023-05-05T04:11:19.240Z,75.18
2023-05-05T04:12:19.228Z,75.02
2023-05-05T04:13:19.271Z,74.70
2023-05-05T04:14:19.251Z,74.37
2023-05-05T04:15:19.228Z,74.02
2023-05-05T04:16:19.217Z,73.81
2023-05-05T04:17:19.172Z,73.51
2023-05-05T04:18:19.162Z,73.31
2023-05-05T04:19:19.176Z,73.15
2023-05-05T04:20:19.154Z,73.06
2023-05-05T04:21:19.167Z,73.05
2023-05-05T04:22:19.126Z,72.99
2023-05-05T04:23:19.117Z,72.98
2023-05-05T04:24:19.112Z,72.85
2023-05-05T04:25:19.111Z,72.95
2023-05-05T04:26:19.110Z,73.08
2023-05-05T04:27:19.115Z,73.12
2023-05-05T04:28:20.966Z,73.10
2023-05-05T04:29:19.075Z,73.15
2023-05-05T04:30:19.075Z,73.19
2023-05-05T04:31:19.044Z,73.20
2023-05-05T04:32:19.078Z,73.16
2023-05-05T04:33:19.026Z,73.01
2023-05-05T04:34:19.021Z,72.98
2023-05-05T04:35:18.990Z,72.93
2023-05-05T04:36:19.010Z,73.05
2023-05-05T04:37:18.995Z,73.12
2023-05-05T04:38:19.054Z,73.31
2023-05-05T04:39:18.995Z,73.41
2023-05-05T04:40:18.965Z,73.44
2023-05-05T04:41:18.929Z,73.53
2023-05-05T04:42:18.936Z,73.55
2023-05-05T04:43:18.926Z,73.59
2023-05-05T04:44:18.903Z,73.54
2023-05-05T04:45:18.909Z,73.32
2023-05-05T04:46:18.926Z,73.17
2023-05-05T04:47:18.888Z,73.16
2023-05-05T04:48:18.930Z,73.10
2023-05-05T04:49:18.853Z,73.00
2023-05-05T04:50:18.843Z,72.98
2023-05-05T04:51:18.862Z,73.07
2023-05-05T04:52:18.834Z,73.08
2023-05-05T04:53:18.816Z,73.10
2023-05-05T04:54:18.828Z,73.12
2023-05-05T04:55:18.808Z,73.19
2023-05-05T04:56:18.782Z,72.92
2023-05-05T04:57:18.784Z,72.71
2023-05-05T04:58:18.820Z,72.53
2023-05-05T04:59:18.745Z,72.18
2023-05-05T05:00:18.760Z,71.99
2023-05-05T05:01:18.758Z,71.92
2023-05-05T05:02:18.803Z,71.85
2023-05-05T05:03:18.764Z,71.64
2023-05-05T05:04:18.837Z,71.57
2023-05-05T05:05:18.700Z,71.59
2023-05-05T05:06:18.734Z,71.43
2023-05-05T05:07:18.682Z,71.30
2023-05-05T05:08:18.681Z,71.22
2023-05-05T05:09:18.673Z,70.80
2023-05-05T05:10:18.653Z,71.12
2023-05-05T05:11:18.649Z,70.82
2023-05-05T05:12:18.648Z,70.63
2023-05-05T05:13:18.829Z,70.13
2023-05-05T05:14:18.671Z,70.54
2023-05-05T05:15:18.606Z,70.78
2023-05-05T05:16:18.689Z,71.09
2023-05-05T05:17:18.610Z,71.15
2023-05-05T05:18:18.576Z,71.39
2023-05-05T05:19:18.617Z,71.34
2023-05-05T05:20:18.633Z,71.42
2023-05-05T05:21:18.872Z,71.19
2023-05-05T05:22:18.524Z,71.22
2023-05-05T05:23:18.617Z,70.92
2023-05-05T05:24:18.555Z,70.71
2023-05-05T05:25:19.487Z,70.59
2023-05-05T05:26:18.539Z,70.64
2023-05-05T05:27:18.482Z,70.52
2023-05-05T05:28:18.667Z,70.16
2023-05-05T05:29:18.472Z,69.96
2023-05-05T05:30:18.463Z,70.53
2023-05-05T05:31:18.476Z,70.53
2023-05-05T05:32:18.438Z,70.70
2023-05-05T05:33:18.440Z,70.27
2023-05-05T05:34:18.415Z,70.10
2023-05-05T05:35:18.395Z,69.82
2023-05-05T05:36:18.422Z,69.79
2023-05-05T05:37:18.370Z,69.95
2023-05-05T05:38:18.383Z,70.14
2023-05-05T05:39:18.381Z,69.56
2023-05-05T05:40:18.366Z,69.98
2023-05-05T05:41:18.318Z,69.86
2023-05-05T05:42:18.305Z,69.95
2023-05-05T05:43:18.398Z,69.96
2023-05-05T05:44:18.356Z,70.17
2023-05-05T05:45:18.306Z,69.53
2023-05-05T05:46:18.318Z,69.88
2023-05-05T05:47:18.265Z,69.45
2023-05-05T05:48:18.268Z,69.37
2023-05-05T05:49:18.265Z,69.39
2023-05-05T05:50:18.273Z,69.25
2023-05-05T05:51:18.260Z,68.52
2023-05-05T05:52:18.216Z,68.38
2023-05-05T05:53:18.206Z,68.29
2023-05-05T05:54:18.212Z,67.96
2023-05-05T05:55:18.249Z,67.13
2023-05-05T05:56:18.201Z,66.68
2023-05-05T05:57:18.232Z,66.43
2023-05-05T05:58:18.245Z,66.33
2023-05-05T05:59:18.140Z,66.50
2023-05-05T06:00:18.149Z,66.51
2023-05-05T06:01:18.138Z,66.21
2023-05-05T06:02:18.186Z,65.59
2023-05-05T06:03:18.246Z,65.21
2023-05-05T06:04:18.159Z,65.25
2023-05-05T06:05:18.068Z,65.35
2023-05-05T06:06:18.061Z,65.03
2023-05-05T06:07:18.078Z,64.98
2023-05-05T06:08:18.041Z,64.66
2023-05-05T06:09:18.036Z,64.98
2023-05-05T06:10:27.373Z,64.84
2023-05-05T06:11:18.004Z,65.11
2023-05-05T06:12:18.004Z,65.27
2023-05-05T06:13:18.054Z,65.12
2023-05-05T06:14:18.909Z,65.56
2023-05-05T06:15:17.977Z,65.25
2023-05-05T06:16:17.982Z,65.44
2023-05-05T06:17:17.949Z,65.49
2023-05-05T06:18:18.096Z,65.41
2023-05-05T06:19:17.951Z,65.02
2023-05-05T06:20:17.914Z,64.51
2023-05-05T06:21:17.899Z,64.36
2023-05-05T06:22:17.900Z,64.68
2023-05-05T06:23:17.898Z,63.76
2023-05-05T06:24:17.873Z,63.62
2023-05-05T06:25:17.872Z,63.57
2023-05-05T06:26:17.848Z,63.99
2023-05-05T06:27:17.856Z,63.53
2023-05-05T06:28:17.821Z,63.56
2023-05-05T06:29:17.820Z,63.12
2023-05-05T06:30:17.875Z,62.98
2023-05-05T06:31:17.832Z,63.38
2023-05-05T06:32:17.792Z,63.46
2023-05-05T06:33:17.782Z,62.92
2023-05-05T06:34:17.865Z,63.41
2023-05-05T06:35:17.784Z,63.27
2023-05-05T06:36:17.792Z,63.15
2023-05-05T06:37:17.761Z,62.97
2023-05-05T06:38:17.730Z,63.20
2023-05-05T06:39:17.742Z,63.22
2023-05-05T06:40:18.178Z,63.20
2023-05-05T06:41:17.712Z,63.90
2023-05-05T06:42:17.720Z,64.07
2023-05-05T06:43:17.748Z,63.72
2023-05-05T06:44:17.674Z,64.14
2023-05-05T06:45:17.689Z,63.18
2023-05-05T06:46:17.735Z,62.49
2023-05-05T06:47:17.641Z,62.19
2023-05-05T06:48:17.619Z,62.44
2023-05-05T06:49:17.618Z,61.74
2023-05-05T06:50:17.650Z,60.87
2023-05-05T06:51:17.648Z,60.53
2023-05-05T06:52:17.605Z,60.16
2023-05-05T06:53:17.617Z,60.49
2023-05-05T06:54:17.579Z,60.00
2023-05-05T06:55:17.559Z,59.83
2023-05-05T06:56:17.540Z,59.92
2023-05-05T06:57:17.586Z,59.42
2023-05-05T06:58:17.517Z,59.31
2023-05-05T06:59:17.534Z,59.58
2023-05-05T07:00:17.586Z,59.43
2023-05-05T07:01:17.561Z,59.70
2023-05-05T07:02:17.522Z,59.72
2023-05-05T07:03:17.516Z,60.15
2023-05-05T07:04:17.632Z,60.49
2023-05-05T07:05:17.461Z,60.33
2023-05-05T07:06:17.450Z,60.14
2023-05-05T07:07:17.433Z,60.21
2023-05-05T07:08:17.428Z,60.74
2023-05-05T07:09:17.670Z,60.96
2023-05-05T07:10:17.467Z,60.72
2023-05-05T07:11:17.398Z,60.40
2023-05-05T07:12:17.386Z,60.09
2023-05-05T07:13:17.606Z,59.70
2023-05-05T07:14:17.360Z,60.91
2023-05-05T07:15:27.336Z,61.03
2023-05-05T07:16:17.371Z,60.36
2023-05-05T07:17:17.357Z,60.61
2023-05-05T07:18:17.338Z,60.22
2023-05-05T07:19:17.322Z,60.39
2023-05-05T07:20:17.301Z,60.78
2023-05-05T07:21:17.290Z,60.41
2023-05-05T07:22:17.301Z,60.54
2023-05-05T07:23:17.383Z,60.32
2023-05-05T07:24:17.293Z,60.31
2023-05-05T07:25:17.284Z,60.27
2023-05-05T07:26:17.242Z,60.92
2023-05-05T07:27:17.244Z,61.84
2023-05-05T07:28:17.227Z,62.42
2023-05-05T07:29:17.232Z,62.98
2023-05-05T07:30:19.004Z,62.81
2023-05-05T07:31:17.232Z,62.68
2023-05-05T07:32:17.193Z,62.73
2023-05-05T07:33:17.181Z,62.80
2023-05-05T07:34:17.170Z,62.53
2023-05-05T07:35:17.192Z,62.46
2023-05-05T07:36:17.141Z,62.48
2023-05-05T07:37:17.134Z,62.25
2023-05-05T07:38:17.118Z,62.30
2023-05-05T07:39:18.115Z,62.42
2023-05-05T07:40:17.114Z,61.89
2023-05-05T07:41:17.092Z,62.08
2023-05-05T07:42:17.094Z,61.74
2023-05-05T07:43:17.102Z,62.05
2023-05-05T07:44:17.056Z,62.09
2023-05-05T07:45:17.045Z,61.92
2023-05-05T07:46:17.059Z,61.54
2023-05-05T07:47:17.026Z,61.73
2023-05-05T07:48:17.029Z,61.36
2023-05-05T07:49:17.012Z,61.35
2023-05-05T07:50:16.996Z,60.95
2023-05-05T07:51:17.002Z,60.76
2023-05-05T07:52:16.988Z,59.97
2023-05-05T07:53:17.048Z,60.56
2023-05-05T07:54:16.956Z,60.24
2023-05-05T07:55:16.956Z,60.49
2023-05-05T07:56:16.922Z,60.74
2023-05-05T07:57:16.970Z,59.90
2023-05-05T07:58:16.913Z,59.92
2023-05-05T07:59:16.920Z,59.93
2023-05-05T08:00:16.903Z,60.39
2023-05-05T08:01:16.916Z,60.35
2023-05-05T08:02:16.913Z,59.83
2023-05-05T08:03:16.929Z,59.80
2023-05-05T08:04:17.044Z,59.21
2023-05-05T08:05:16.875Z,58.58
2023-05-05T08:06:16.873Z,58.17
2023-05-05T08:07:16.875Z,58.14
2023-05-05T08:08:16.838Z,58.50
2023-05-05T08:09:16.798Z,57.76
2023-05-05T08:10:16.799Z,56.18
2023-05-05T08:11:16.833Z,56.98
2023-05-05T08:12:16.795Z,56.60
2023-05-05T08:13:16.874Z,56.05
2023-05-05T08:14:16.752Z,55.46
2023-05-05T08:15:16.732Z,54.84
2023-05-05T08:16:16.775Z,55.19
2023-05-05T08:17:16.719Z,55.64
2023-05-05T08:18:16.743Z,55.77
2023-05-05T08:19:25.241Z,55.46
2023-05-05T08:20:16.733Z,55.24
2023-05-05T08:21:16.833Z,55.46
2023-05-05T08:22:16.677Z,55.56
2023-05-05T08:23:16.657Z,55.51
2023-05-05T08:24:16.673Z,55.55
2023-05-05T08:25:16.687Z,55.54
2023-05-05T08:26:16.620Z,55.50
2023-05-05T08:27:16.628Z,55.64
2023-05-05T08:28:16.637Z,55.84
2023-05-05T08:29:16.598Z,55.87
2023-05-05T08:30:16.632Z,56.54
2023-05-05T08:31:16.627Z,56.28
2023-05-05T08:32:16.600Z,56.11
2023-05-05T08:33:16.630Z,55.40
2023-05-05T08:34:16.572Z,54.90
2023-05-05T08:35:16.591Z,54.47
2023-05-05T08:36:16.521Z,54.78
2023-05-05T08:37:16.541Z,55.60
2023-05-05T08:38:16.567Z,54.58
2023-05-05T08:39:16.524Z,55.11
2023-05-05T08:40:16.529Z,55.45
2023-05-05T08:41:16.571Z,55.13
2023-05-05T08:42:29.043Z,54.47
2023-05-05T08:43:16.476Z,54.44
2023-05-05T08:44:16.495Z,54.06
2023-05-05T08:45:16.468Z,53.32
2023-05-05T08:46:16.503Z,53.37
2023-05-05T08:47:16.434Z,53.83
2023-05-05T08:48:16.416Z,54.09
2023-05-05T08:49:16.415Z,54.87
2023-05-05T08:50:16.396Z,54.25
2023-05-05T08:51:16.392Z,54.53
2023-05-05T08:52:16.426Z,54.71
2023-05-05T08:53:16.389Z,54.99
2023-05-05T08:54:16.348Z,54.63
2023-05-05T08:55:16.374Z,55.72
2023-05-05T08:56:16.327Z,55.73
2023-05-05T08:57:16.335Z,55.95
2023-05-05T08:58:16.296Z,56.08
2023-05-05T08:59:16.327Z,56.26
2023-05-05T09:00:16.573Z,56.22
2023-05-05T09:01:16.369Z,55.90
2023-05-05T09:02:16.276Z,55.92
2023-05-05T09:03:16.476Z,56.23
2023-05-05T09:04:16.236Z,56.66
2023-05-05T09:05:16.258Z,56.12
2023-05-05T09:06:16.254Z,56.55
2023-05-05T09:07:16.223Z,56.61
2023-05-05T09:08:16.186Z,57.02
2023-05-05T09:09:16.222Z,57.37
2023-05-05T09:10:16.202Z,56.92
2023-05-05T09:11:16.166Z,56.25
2023-05-05T09:12:16.149Z,57.14
2023-05-05T09:13:16.281Z,56.65
2023-05-05T09:14:16.130Z,56.10
2023-05-05T09:15:16.149Z,56.40
2023-05-05T09:16:16.155Z,56.96
2023-05-05T09:17:16.101Z,56.50
2023-05-05T09:18:16.085Z,56.22
2023-05-05T09:19:16.104Z,55.54
2023-05-05T09:20:16.086Z,55.19
2023-05-05T09:21:16.088Z,53.84
2023-05-05T09:22:16.059Z,54.67
2023-05-05T09:23:16.079Z,54.67
2023-05-05T09:24:16.068Z,53.58
2023-05-05T09:25:16.060Z,53.51
2023-05-05T09:26:16.040Z,54.15
2023-05-05T09:27:16.091Z,54.14
2023-05-05T09:28:16.027Z,54.76
2023-05-05T09:29:15.994Z,54.86
2023-05-05T09:30:15.997Z,53.81
2023-05-05T09:31:16.382Z,53.32
2023-05-05T09:32:15.978Z,53.27
2023-05-05T09:33:16.023Z,53.81
2023-05-05T09:34:15.945Z,53.68
2023-05-05T09:35:15.950Z,53.58
2023-05-05T09:36:15.935Z,54.07
2023-05-05T09:37:15.901Z,54.36
2023-05-05T09:38:15.981Z,55.45
2023-05-05T09:39:15.914Z,55.65
2023-05-05T09:40:15.903Z,55.84
2023-05-05T09:41:15.871Z,56.25
2023-05-05T09:42:15.888Z,56.17
2023-05-05T09:43:15.857Z,56.59
2023-05-05T09:44:15.847Z,56.31
2023-05-05T09:45:15.845Z,56.28
2023-05-05T09:46:15.852Z,56.11
2023-05-05T09:47:28.507Z,56.66
2023-05-05T09:48:15.894Z,56.94
2023-05-05T09:49:15.826Z,57.53
2023-05-05T09:50:15.811Z,57.40
2023-05-05T09:51:15.770Z,58.14
2023-05-05T09:52:15.798Z,57.20
2023-05-05T09:53:15.775Z,57.62
2023-05-05T09:54:15.824Z,58.13
2023-05-05T09:55:15.728Z,57.34
2023-05-05T09:56:15.702Z,57.80
2023-05-05T09:57:15.700Z,57.50
2023-05-05T09:58:15.771Z,57.16
2023-05-05T09:59:15.674Z,57.32
2023-05-05T10:00:15.701Z,58.01
2023-05-05T10:01:15.692Z,57.32
2023-05-05T10:02:15.654Z,57.35
2023-05-05T10:03:15.698Z,57.47
2023-05-05T10:04:15.625Z,56.14
2023-05-05T10:05:15.684Z,55.46
2023-05-05T10:06:15.638Z,55.93
2023-05-05T10:07:15.610Z,56.17
2023-05-05T10:08:15.582Z,56.45
2023-05-05T10:09:15.570Z,57.28
2023-05-05T10:10:15.619Z,56.04
2023-05-05T10:11:15.569Z,56.38
2023-05-05T10:12:15.541Z,55.02
2023-05-05T10:13:15.600Z,55.65
2023-05-05T10:14:15.524Z,56.75
2023-05-05T10:15:15.512Z,56.57
2023-05-05T10:16:15.533Z,56.59
2023-05-05T10:17:15.490Z,56.56
2023-05-05T10:18:15.514Z,56.25
2023-05-05T10:19:15.494Z,56.61
2023-05-05T10:20:15.468Z,55.83
2023-05-05T10:21:15.451Z,55.91
2023-05-05T10:22:15.459Z,54.94
2023-05-05T10:23:15.460Z,55.08
2023-05-05T10:24:15.414Z,55.84
2023-05-05T10:25:15.432Z,56.26
2023-05-05T10:26:15.411Z,56.55
2023-05-05T10:27:15.398Z,55.98
2023-05-05T10:28:15.416Z,55.60
2023-05-05T10:29:15.426Z,55.77
2023-05-05T10:30:15.357Z,55.58
2023-05-05T10:31:25.221Z,55.71
2023-05-05T10:32:37.129Z,54.09
2023-05-05T10:33:30.814Z,54.50
2023-05-05T10:34:15.444Z,55.15
2023-05-05T10:35:15.338Z,55.16
2023-05-05T10:36:15.338Z,53.59
2023-05-05T10:37:15.306Z,54.37
2023-05-05T10:38:15.283Z,54.05
2023-05-05T10:39:15.294Z,52.44
2023-05-05T10:40:15.300Z,52.95
2023-05-05T10:41:15.266Z,53.14
2023-05-05T10:42:15.288Z,53.28
2023-05-05T10:43:15.275Z,54.62
2023-05-05T10:44:15.244Z,54.29
2023-05-05T10:45:15.281Z,54.47
2023-05-05T10:46:15.294Z,54.67
2023-05-05T10:47:15.280Z,54.85
2023-05-05T10:48:15.214Z,54.86
2023-05-05T10:49:15.221Z,53.71
2023-05-05T10:50:15.233Z,53.40
2023-05-05T10:51:23.954Z,51.91
2023-05-05T10:52:15.236Z,49.81
2023-05-05T10:53:15.378Z,50.76
2023-05-05T10:54:15.257Z,51.43
2023-05-05T10:55:15.179Z,51.32
2023-05-05T10:56:15.112Z,50.86
2023-05-05T10:57:15.101Z,48.04
2023-05-05T10:58:15.120Z,47.73
2023-05-05T10:59:15.120Z,49.31
2023-05-05T11:00:15.156Z,49.90
2023-05-05T11:01:15.119Z,51.23
2023-05-05T11:02:15.088Z,51.36
2023-05-05T11:03:15.186Z,50.31
2023-05-05T11:04:15.062Z,51.45
2023-05-05T11:05:15.270Z,50.06
2023-05-05T11:06:15.023Z,49.27
2023-05-05T11:07:15.103Z,48.19
2023-05-05T11:08:14.979Z,47.25
2023-05-05T11:09:14.970Z,46.96
2023-05-05T11:10:15.242Z,46.04
2023-05-05T11:11:14.961Z,44.15
2023-05-05T11:12:14.947Z,44.57
2023-05-05T11:13:14.989Z,46.10
2023-05-05T11:14:14.917Z,49.33
2023-05-05T11:15:14.916Z,48.07
2023-05-05T11:16:14.973Z,49.21
2023-05-05T11:17:14.909Z,50.16
2023-05-05T11:18:14.985Z,51.84
2023-05-05T11:19:14.879Z,51.78
2023-05-05T11:20:14.904Z,50.23
2023-05-05T11:21:14.863Z,49.34
2023-05-05T11:22:14.847Z,47.59
2023-05-05T11:23:16.629Z,46.31
2023-05-05T11:24:14.831Z,47.24
2023-05-05T11:25:14.828Z,46.88
2023-05-05T11:26:14.857Z,47.50
2023-05-05T11:27:14.836Z,46.89
2023-05-05T11:28:14.885Z,47.79
2023-05-05T11:29:14.826Z,47.98
2023-05-05T11:30:15.741Z,47.33
2023-05-05T11:31:14.890Z,49.13
2023-05-05T11:32:14.788Z,48.97
2023-05-05T11:33:14.739Z,50.50
2023-05-05T11:34:14.786Z,48.74
2023-05-05T11:35:14.745Z,48.13
2023-05-05T11:36:14.773Z,48.04
2023-05-05T11:37:14.781Z,48.02
2023-05-05T11:38:14.724Z,47.20
2023-05-05T11:39:14.730Z,46.84
2023-05-05T11:40:14.742Z,45.14
2023-05-05T11:41:14.707Z,43.67
2023-05-05T11:42:14.686Z,43.16
2023-05-05T11:43:14.636Z,42.81
2023-05-05T11:44:14.663Z,43.86
2023-05-05T11:45:14.620Z,42.91
2023-05-05T11:46:14.732Z,43.44
2023-05-05T11:47:14.679Z,43.59
2023-05-05T11:48:14.737Z,42.73
2023-05-05T11:49:14.620Z,42.64
2023-05-05T11:50:14.613Z,42.97
2023-05-05T11:51:14.583Z,42.65
2023-05-05T11:52:14.660Z,40.92
2023-05-05T11:53:14.566Z,41.34
2023-05-05T11:54:14.586Z,42.04
2023-05-05T11:55:14.545Z,40.68
2023-05-05T11:56:14.580Z,40.14
2023-05-05T11:57:14.526Z,40.38
2023-05-05T11:58:14.523Z,41.00
2023-05-05T11:59:14.543Z,42.49
2023-05-05T12:00:14.551Z,41.78
2023-05-05T12:01:14.538Z,42.80
2023-05-05T12:02:14.641Z,42.37
2023-05-05T12:03:14.556Z,43.94
2023-05-05T12:04:14.605Z,43.70
2023-05-05T12:05:14.448Z,42.33
2023-05-05T12:06:14.447Z,42.80
2023-05-05T12:07:14.445Z,43.32
2023-05-05T12:08:14.417Z,42.51
2023-05-05T12:09:14.387Z,42.42
2023-05-05T12:10:14.403Z,42.61
2023-05-05T12:11:14.375Z,42.53
2023-05-05T12:12:14.392Z,43.55
2023-05-05T12:13:14.416Z,44.41
2023-05-05T12:14:14.369Z,44.25
2023-05-05T12:15:14.357Z,43.29
2023-05-05T12:16:14.365Z,42.80
2023-05-05T12:17:14.348Z,41.21
2023-05-05T12:18:14.319Z,41.59
2023-05-05T12:19:14.324Z,42.04
2023-05-05T12:20:14.418Z,41.29
2023-05-05T12:21:14.296Z,41.24
2023-05-05T12:22:14.271Z,41.21
2023-05-05T12:23:14.274Z,41.37
2023-05-05T12:24:14.249Z,42.17
2023-05-05T12:25:14.264Z,43.01
2023-05-05T12:26:14.262Z,43.56
2023-05-05T12:27:14.270Z,43.86
2023-05-05T12:28:14.328Z,43.17
2023-05-05T12:29:14.244Z,42.91
2023-05-05T12:30:14.197Z,43.14
2023-05-05T12:31:14.401Z,44.89
2023-05-05T12:32:14.340Z,44.66
2023-05-05T12:33:14.207Z,42.57
2023-05-05T12:34:14.201Z,44.13
2023-05-05T12:35:14.352Z,44.33
2023-05-05T12:36:14.169Z,45.61
2023-05-05T12:37:14.179Z,45.38
2023-05-05T12:38:14.176Z,45.32
2023-05-05T12:39:14.169Z,45.29
2023-05-05T12:40:14.120Z,44.87
2023-05-05T12:41:14.109Z,44.93
2023-05-05T12:42:14.113Z,44.84
2023-05-05T12:43:14.116Z,44.14
2023-05-05T12:44:14.117Z,44.45
2023-05-05T12:45:14.099Z,42.40
2023-05-05T12:46:14.077Z,41.56
2023-05-05T12:47:14.128Z,42.73
2023-05-05T12:48:14.075Z,43.28
2023-05-05T12:49:14.043Z,43.48
2023-05-05T12:50:14.041Z,42.54
2023-05-05T12:51:14.039Z,42.27
2023-05-05T12:52:14.018Z,44.57